This is the latest recevied weather packets stored in our database for station/object DC3YC-13. If no packets are shown the sender has not sent any weather packets the latest 10 day(s).
| Time | Temp. | Humidity | Pressure | Rain* | Wind** | Luminosity | Snow |
|---|---|---|---|---|---|---|---|
| 1777790792 | 13.89° C | 59% | 1014.4 hPa | 0 mm | - | - | - |
| 1777790192 | 13.89° C | 62% | 1014.4 hPa | 0 mm | - | - | - |
| 1777789592 | 12.78° C | 66% | 1014.4 hPa | 0 mm | - | - | - |
| 1777788992 | 12.22° C | 67% | 1014.4 hPa | 0 mm | - | - | - |
| 1777788392 | 12.22° C | 67% | 1013.4 hPa | 0 mm | - | - | - |
| 1777787792 | 11.11° C | 69% | 1013.4 hPa | 0 mm | - | - | - |
| 1777787192 | 11.11° C | 70% | 1013.4 hPa | 0 mm | - | - | - |
| 1777786592 | 10° C | 72% | 1013.4 hPa | 0 mm | - | - | - |
| 1777785992 | 10° C | 75% | 1013.4 hPa | 0 mm | - | - | - |
| 1777785391 | 8.89° C | 80% | 1013.4 hPa | 0 mm | - | - | - |
| 1777784792 | 8.89° C | 81% | 1013.4 hPa | 0 mm | - | - | - |
| 1777784192 | 8.89° C | 79% | 1013.4 hPa | 0 mm | - | - | - |
| 1777783592 | 7.78° C | 81% | 1013.4 hPa | 0 mm | - | - | - |
| 1777782992 | 7.78° C | 82% | 1013.4 hPa | 0 mm | - | - | - |
| 1777782392 | 7.22° C | 83% | 1013.4 hPa | 0 mm | - | - | - |
| 1777781791 | 7.22° C | 84% | 1014.4 hPa | 0 mm | - | - | - |
| 1777781192 | 7.22° C | 86% | 1013.4 hPa | 0 mm | - | - | - |
| 1777780591 | 7.22° C | 87% | 1014.4 hPa | 0 mm | - | - | - |
| 1777779991 | 6.11° C | 88% | 1014.4 hPa | 0 mm | - | - | - |
| 1777779391 | 7.22° C | 87% | 1014.4 hPa | 0 mm | - | - | - |
| 1777778791 | 7.22° C | 86% | 1013.4 hPa | 0 mm | - | - | - |
| 1777778191 | 7.22° C | 86% | 1014.3 hPa | 0 mm | - | - | - |
| 1777777591 | 7.22° C | 86% | 1014.3 hPa | 0 mm | - | - | - |
| 1777776992 | 7.22° C | 86% | 1014.3 hPa | 0 mm | - | - | - |
| 1777776391 | 7.22° C | 85% | 1014.3 hPa | 0 mm | - | - | - |
* Rain latest hour (hover to see other rain measurements)
** Current wind speed in m/s (hover to see current wind gust speed)